Time;durP1;ratioP1;P1;durP2;ratioP2;P2;SDS_P1;SDS_P2;PMS_P1;PMS_P2;Temp;Humidity;BMP_temperature;BMP_pressure;BME280_temperature;BME280_humidity;BME280_pressure;Samples;Min_cycle;Max_cycle;Signal;HPM_P1;HPM_P2
2021/06/04 00:03:10;;;;;;;9.60;4.35;;;16.80;99.40;;;;;;5091986;28;20403;-57
2021/06/04 00:06:15;;;;;;;7.13;4.05;;;16.80;99.70;;;;;;5091046;28;20044;-56
2021/06/04 00:09:19;;;;;;;8.98;3.63;;;16.80;99.90;;;;;;5091930;28;20040;-56
2021/06/04 00:12:24;;;;;;;7.35;3.90;;;16.80;99.90;;;;;;5080582;28;20036;-56
2021/06/04 00:15:28;;;;;;;5.70;3.40;;;16.80;99.90;;;;;;5076752;28;20040;-55
2021/06/04 00:18:34;;;;;;;7.80;3.67;;;16.80;99.90;;;;;;5091820;28;20044;-57
2021/06/04 00:21:43;;;;;;;6.18;3.50;;;16.80;99.90;;;;;;5091210;28;20060;-55
2021/06/04 00:24:50;;;;;;;4.82;3.40;;;16.80;99.90;;;;;;5091892;28;20486;-57
2021/06/04 00:27:54;;;;;;;6.60;3.63;;;16.80;99.90;;;;;;5091775;28;20036;-57
2021/06/04 00:30:58;;;;;;;6.47;3.80;;;16.80;99.90;;;;;;5079323;28;20024;-56
2021/06/04 00:34:04;;;;;;;6.18;3.60;;;16.80;99.90;;;;;;5090572;28;20036;-55
2021/06/04 00:37:10;;;;;;;7.15;3.92;;;16.80;99.90;;;;;;5084720;28;20044;-56
2021/06/04 00:40:20;;;;;;;6.43;3.40;;;16.80;99.90;;;;;;5074048;28;20036;-57
2021/06/04 00:43:26;;;;;;;6.65;3.78;;;16.80;99.90;;;;;;5092123;28;20040;-54
2021/06/04 00:46:30;;;;;;;7.63;3.72;;;16.70;99.90;;;;;;5091512;28;20384;-55
2021/06/04 00:49:36;;;;;;;10.32;3.78;;;16.60;99.90;;;;;;5090390;28;20032;-54
2021/06/04 00:52:42;;;;;;;11.50;4.07;;;16.60;99.90;;;;;;5090403;28;20055;-57
2021/06/04 00:55:46;;;;;;;6.63;3.50;;;16.70;99.90;;;;;;5091332;28;20047;-57
2021/06/04 00:58:52;;;;;;;6.47;4.15;;;16.70;99.90;;;;;;5090193;28;20036;-54
2021/06/04 01:01:57;;;;;;;11.15;3.45;;;16.80;99.90;;;;;;5090487;28;20036;-57
2021/06/04 01:05:02;;;;;;;7.82;3.47;;;16.80;99.90;;;;;;5089586;28;20513;-55
2021/06/04 01:08:19;;;;;;;5.65;3.67;;;16.80;99.90;;;;;;5089996;28;20035;-57
2021/06/04 01:11:57;;;;;;;5.57;3.70;;;16.80;99.90;;;;;;5089717;28;20032;-57
2021/06/04 01:15:22;;;;;;;6.45;3.50;;;16.70;99.90;;;;;;5089399;28;20032;-57
2021/06/04 01:18:48;;;;;;;8.10;4.57;;;16.60;99.90;;;;;;5090046;28;20035;-55
2021/06/04 01:21:57;;;;;;;9.52;3.70;;;16.40;99.90;;;;;;5090236;28;20047;-56
2021/06/04 01:25:40;;;;;;;9.02;3.60;;;16.40;99.90;;;;;;5081545;28;20032;-56
2021/06/04 01:28:50;;;;;;;5.82;4.30;;;16.30;99.90;;;;;;5082270;28;20047;-56
2021/06/04 01:32:02;;;;;;;10.30;3.92;;;16.30;99.90;;;;;;5090196;28;20047;-56
2021/06/04 01:35:11;;;;;;;6.00;4.03;;;16.30;99.90;;;;;;5089724;28;20043;-55
2021/06/04 01:38:19;;;;;;;6.60;4.30;;;16.10;99.90;;;;;;5091062;28;20509;-55
2021/06/04 01:41:29;;;;;;;8.35;4.03;;;16.10;99.90;;;;;;5089405;28;20375;-55
2021/06/04 01:45:03;;;;;;;9.10;4.00;;;16.00;99.90;;;;;;5089943;28;20043;-56
2021/06/04 01:48:17;;;;;;;4.72;3.67;;;16.00;99.90;;;;;;5089091;28;20521;-56
2021/06/04 01:51:36;;;;;;;8.95;4.20;;;16.00;99.90;;;;;;5088698;28;20052;-57
2021/06/04 01:55:18;;;;;;;4.47;3.60;;;16.00;99.90;;;;;;5089287;28;20043;-54
2021/06/04 01:58:42;;;;;;;7.28;3.88;;;16.00;99.90;;;;;;5088959;28;20038;-54
2021/06/04 02:01:50;;;;;;;4.63;4.10;;;16.00;99.90;;;;;;5088664;28;20036;-56
2021/06/04 02:04:56;;;;;;;4.70;3.50;;;16.00;99.90;;;;;;5088722;28;20047;-55
2021/06/04 02:08:04;;;;;;;8.18;3.63;;;15.90;99.90;;;;;;5089244;28;20047;-56
2021/06/04 02:11:26;;;;;;;6.50;3.67;;;15.80;99.90;;;;;;5089770;28;20436;-56
2021/06/04 02:14:38;;;;;;;5.32;3.75;;;15.80;99.90;;;;;;5026527;28;20064;-47
2021/06/04 02:18:15;;;;;;;6.47;3.70;;;15.70;99.90;;;;;;5028917;28;20052;-50
2021/06/04 02:21:39;;;;;;;5.43;4.20;;;15.70;99.90;;;;;;5031547;28;20041;-47
2021/06/04 02:25:18;;;;;;;7.20;4.60;;;15.60;99.90;;;;;;5036914;28;20039;-47
2021/06/04 02:28:43;;;;;;;5.80;3.90;;;15.50;99.90;;;;;;5009522;28;20038;-47
2021/06/04 02:32:00;;;;;;;8.52;4.18;;;15.50;99.90;;;;;;5036681;28;20025;-50
2021/06/04 02:35:09;;;;;;;7.43;4.50;;;15.40;99.90;;;;;;5049010;28;20056;-46
2021/06/04 02:38:38;;;;;;;7.15;4.70;;;15.40;99.90;;;;;;5048918;28;20384;-46
2021/06/04 02:41:49;;;;;;;10.02;5.40;;;15.30;99.90;;;;;;5047681;28;20034;-49
2021/06/04 02:45:00;;;;;;;9.50;3.90;;;15.20;99.90;;;;;;5048954;28;20438;-46
2021/06/04 02:48:12;;;;;;;6.20;4.25;;;15.20;99.90;;;;;;5037174;28;20039;-48
2021/06/04 02:51:32;;;;;;;6.32;4.95;;;15.20;99.90;;;;;;5049110;28;20052;-51
2021/06/04 02:54:42;;;;;;;5.47;4.57;;;15.20;99.90;;;;;;5037249;28;20052;-47
2021/06/04 02:57:47;;;;;;;6.07;4.15;;;15.20;99.90;;;;;;5049006;28;20522;-46
2021/06/04 03:00:55;;;;;;;8.40;4.20;;;15.20;99.90;;;;;;5048091;28;20045;-46
2021/06/04 03:04:02;;;;;;;8.25;4.00;;;15.20;99.90;;;;;;5047992;28;20047;-47
2021/06/04 03:07:19;;;;;;;7.55;4.20;;;15.20;99.90;;;;;;5035877;28;20033;-48
2021/06/04 03:10:35;;;;;;;6.70;4.25;;;15.30;99.90;;;;;;5036537;28;20040;-48
2021/06/04 03:13:43;;;;;;;7.50;4.30;;;15.30;99.90;;;;;;5044941;28;20033;-46
2021/06/04 03:16:52;;;;;;;8.18;4.80;;;15.30;99.90;;;;;;5024542;28;20041;-48
2021/06/04 03:19:57;;;;;;;8.38;4.30;;;15.10;99.90;;;;;;5038549;28;20036;-47
2021/06/04 03:23:02;;;;;;;8.95;4.10;;;15.00;99.90;;;;;;5052409;28;20041;-48
2021/06/04 03:26:11;;;;;;;8.73;4.53;;;15.00;99.90;;;;;;5040521;28;20051;-47
2021/06/04 03:29:21;;;;;;;5.28;4.07;;;14.90;99.90;;;;;;5031127;28;20053;-47
2021/06/04 03:32:30;;;;;;;10.30;5.63;;;14.80;99.90;;;;;;5032545;28;20048;-47
2021/06/04 03:35:37;;;;;;;7.20;4.60;;;14.80;99.90;;;;;;5020458;28;20044;-49
2021/06/04 03:38:43;;;;;;;7.57;4.40;;;14.90;99.90;;;;;;5031895;28;20037;-47
2021/06/04 03:41:50;;;;;;;8.30;4.68;;;14.90;99.90;;;;;;5032580;28;20401;-46
2021/06/04 03:44:56;;;;;;;12.30;5.65;;;14.90;99.90;;;;;;5032180;28;20524;-46
2021/06/04 03:48:04;;;;;;;6.63;5.10;;;14.70;99.90;;;;;;5052027;28;20051;-46
2021/06/04 03:51:21;;;;;;;7.60;5.43;;;14.50;99.90;;;;;;5039377;28;20522;-48
2021/06/04 03:54:33;;;;;;;9.70;4.85;;;14.40;99.90;;;;;;5052069;28;20039;-47
2021/06/04 03:57:38;;;;;;;11.77;4.85;;;14.40;99.90;;;;;;5039845;28;20045;-46
2021/06/04 04:00:47;;;;;;;8.27;5.57;;;14.40;99.90;;;;;;5051223;28;20056;-47
2021/06/04 04:03:51;;;;;;;12.90;5.60;;;14.50;99.90;;;;;;5052319;28;20044;-46
2021/06/04 04:06:56;;;;;;;5.13;4.55;;;14.50;99.90;;;;;;5051324;28;20044;-50
2021/06/04 04:10:00;;;;;;;6.80;5.30;;;14.60;99.90;;;;;;5052449;28;20049;-46
2021/06/04 04:13:05;;;;;;;9.70;5.30;;;14.60;99.90;;;;;;5051761;28;20048;-48
2021/06/04 04:16:09;;;;;;;7.97;4.97;;;14.70;99.90;;;;;;5051718;28;20037;-47
2021/06/04 04:19:14;;;;;;;11.45;5.57;;;14.80;99.90;;;;;;5051516;28;20415;-48
2021/06/04 04:22:18;;;;;;;9.00;5.50;;;14.80;99.90;;;;;;5050858;28;20040;-49
2021/06/04 04:25:28;;;;;;;9.68;5.18;;;14.90;99.90;;;;;;5051858;28;20053;-47
2021/06/04 04:28:35;;;;;;;9.23;4.85;;;15.10;99.90;;;;;;5048120;28;20056;-46
2021/06/04 04:31:43;;;;;;;12.18;4.63;;;16.90;99.90;;;;;;5044973;28;20359;-47
2021/06/04 04:34:47;;;;;;;10.10;4.55;;;19.00;99.90;;;;;;5045219;28;20032;-47
2021/06/04 04:37:52;;;;;;;7.88;4.40;;;20.80;99.90;;;;;;5050306;28;20040;-48
2021/06/04 04:41:01;;;;;;;6.78;3.70;;;22.20;98.80;;;;;;5051240;28;20056;-46
2021/06/04 04:44:06;;;;;;;5.30;3.25;;;23.10;96.10;;;;;;5051081;28;20050;-48
2021/06/04 04:47:14;;;;;;;8.90;4.38;;;23.30;95.00;;;;;;5051280;28;20045;-47
2021/06/04 04:50:20;;;;;;;7.80;3.90;;;23.60;94.30;;;;;;5050258;28;20044;-47
2021/06/04 04:53:25;;;;;;;6.25;3.20;;;24.10;93.50;;;;;;5049679;28;20305;-47
2021/06/04 04:56:30;;;;;;;9.27;3.95;;;23.70;93.30;;;;;;5034298;28;20045;-46
2021/06/04 04:59:35;;;;;;;7.88;3.92;;;24.10;93.20;;;;;;5047072;28;20413;-49
2021/06/04 05:02:40;;;;;;;6.80;3.40;;;24.90;93.00;;;;;;5050289;28;20040;-50
2021/06/04 05:05:44;;;;;;;5.60;3.85;;;25.70;91.10;;;;;;5064646;28;20055;-51
2021/06/04 05:08:48;;;;;;;5.50;3.55;;;25.90;91.00;;;;;;5050454;28;20044;-51
2021/06/04 05:11:53;;;;;;;5.47;3.40;;;26.20;89.00;;;;;;5049062;28;20557;-51
2021/06/04 05:14:58;;;;;;;7.50;4.35;;;23.50;91.40;;;;;;5049010;28;20055;-46
2021/06/04 05:18:04;;;;;;;5.95;3.60;;;21.50;93.70;;;;;;5030674;28;20048;-50
2021/06/04 05:21:12;;;;;;;5.68;3.50;;;22.40;94.50;;;;;;5045288;28;20052;-48
2021/06/04 05:24:16;;;;;;;9.05;3.75;;;23.00;94.20;;;;;;5049817;28;20052;-49
2021/06/04 05:27:20;;;;;;;5.57;3.60;;;25.10;92.50;;;;;;5062794;28;20695;-50
2021/06/04 05:30:34;;;;;;;4.63;3.58;;;26.40;90.40;;;;;;5065947;28;20033;-50
2021/06/04 05:33:42;;;;;;;6.90;3.58;;;26.70;88.80;;;;;;5050233;28;20063;-52
2021/06/04 05:36:47;;;;;;;6.72;3.65;;;26.30;89.60;;;;;;5057847;28;20040;-49
2021/06/04 05:39:51;;;;;;;9.35;4.38;;;26.40;88.80;;;;;;5049409;28;20419;-46
2021/06/04 05:42:57;;;;;;;8.38;4.10;;;26.70;88.00;;;;;;5049301;28;20049;-47
2021/06/04 05:46:03;;;;;;;10.57;5.63;;;26.70;86.80;;;;;;5047275;28;20044;-51
2021/06/04 05:49:08;;;;;;;13.00;5.15;;;26.00;87.10;;;;;;5048670;28;20039;-52
2021/06/04 05:52:15;;;;;;;12.50;7.15;;;25.90;88.60;;;;;;5042097;28;20048;-53
2021/06/04 05:55:26;;;;;;;9.45;5.88;;;27.20;86.30;;;;;;5049628;28;20048;-47
2021/06/04 05:58:31;;;;;;;7.97;4.65;;;27.10;85.40;;;;;;5047204;28;20037;-51
2021/06/04 06:01:36;;;;;;;8.43;4.40;;;27.50;85.60;;;;;;5049463;28;20044;-49
2021/06/04 06:04:41;;;;;;;6.72;3.92;;;27.60;84.10;;;;;;5047649;28;20048;-53
2021/06/04 06:07:45;;;;;;;8.00;4.78;;;27.80;83.00;;;;;;5047101;28;20037;-53
2021/06/04 06:10:49;;;;;;;9.80;5.10;;;27.80;83.10;;;;;;5049074;28;20044;-47
2021/06/04 06:13:56;;;;;;;12.48;4.95;;;28.00;83.30;;;;;;5048677;28;20048;-48
2021/06/04 06:17:00;;;;;;;7.22;5.03;;;28.40;83.30;;;;;;5049029;28;20040;-51
2021/06/04 06:20:08;;;;;;;9.95;5.78;;;29.10;81.20;;;;;;5037345;28;20060;-50
2021/06/04 06:23:17;;;;;;;15.73;5.70;;;28.70;80.90;;;;;;5047150;28;20448;-50
2021/06/04 06:26:28;;;;;;;13.70;5.68;;;28.80;80.90;;;;;;5036617;28;20040;-50
2021/06/04 06:29:35;;;;;;;14.45;5.53;;;29.40;79.20;;;;;;5047017;28;20652;-48
2021/06/04 06:32:40;;;;;;;7.10;3.75;;;27.90;80.50;;;;;;5047367;28;20036;-47
2021/06/04 06:35:54;;;;;;;9.73;3.15;;;26.20;85.40;;;;;;5047051;28;20037;-50
2021/06/04 06:39:01;;;;;;;9.45;4.10;;;25.40;88.70;;;;;;5044719;28;20395;-53
2021/06/04 06:42:06;;;;;;;8.23;4.15;;;26.10;87.30;;;;;;5046747;28;20067;-48
2021/06/04 06:45:11;;;;;;;5.65;3.30;;;25.40;89.00;;;;;;5047870;28;20120;-52
2021/06/04 06:48:17;;;;;;;9.43;4.40;;;26.70;87.20;;;;;;5031677;28;20048;-49
2021/06/04 06:51:22;;;;;;;6.10;4.15;;;27.90;83.90;;;;;;5033121;28;20041;-47
2021/06/04 06:54:30;;;;;;;9.63;3.80;;;28.80;81.80;;;;;;5052207;28;20051;-51
2021/06/04 06:57:35;;;;;;;7.55;2.90;;;29.40;80.80;;;;;;5051383;28;20047;-45
2021/06/04 07:00:43;;;;;;;13.38;3.22;;;29.80;80.00;;;;;;5050073;28;20408;-48
2021/06/04 07:03:47;;;;;;;4.32;2.38;;;30.40;78.70;;;;;;5052354;28;20040;-50
2021/06/04 07:06:52;;;;;;;8.30;2.80;;;30.20;78.60;;;;;;5052370;28;20044;-46
2021/06/04 07:09:57;;;;;;;5.03;2.88;;;30.30;77.70;;;;;;5052306;28;20049;-46
2021/06/04 07:13:10;;;;;;;10.10;3.63;;;30.50;77.20;;;;;;5052615;28;20037;-45
2021/06/04 07:16:14;;;;;;;6.05;3.15;;;28.10;77.00;;;;;;5052959;28;20047;-48
2021/06/04 07:19:18;;;;;;;6.78;3.20;;;29.10;76.60;;;;;;5052938;28;20036;-48
2021/06/04 07:22:22;;;;;;;6.55;2.83;;;28.20;77.00;;;;;;5052693;28;20515;-48
2021/06/04 07:25:31;;;;;;;6.22;2.53;;;28.60;79.60;;;;;;5052878;28;20052;-45
2021/06/04 07:28:37;;;;;;;5.22;2.97;;;29.90;75.10;;;;;;5040324;28;20048;-45
2021/06/04 07:31:42;;;;;;;7.00;2.53;;;31.20;75.80;;;;;;5051478;28;20634;-47
2021/06/04 07:34:47;;;;;;;4.55;2.58;;;31.70;72.50;;;;;;5052633;28;20043;-51
2021/06/04 07:37:52;;;;;;;7.75;2.78;;;32.50;72.80;;;;;;5052252;28;20040;-51
2021/06/04 07:40:58;;;;;;;4.32;2.25;;;33.60;70.50;;;;;;5052037;28;20134;-47
2021/06/04 07:44:04;;;;;;;5.80;2.13;;;34.40;68.40;;;;;;5051710;28;20050;-48
2021/06/04 07:47:08;;;;;;;4.18;2.38;;;35.20;65.70;;;;;;5051516;28;20041;-48
2021/06/04 07:50:13;;;;;;;5.05;2.08;;;34.60;62.50;;;;;;5049588;28;20033;-52
2021/06/04 07:53:22;;;;;;;3.90;2.03;;;33.10;64.20;;;;;;5045873;28;20384;-51
2021/06/04 07:56:27;;;;;;;4.30;2.20;;;34.10;64.30;;;;;;5052032;28;20037;-45
2021/06/04 07:59:31;;;;;;;4.28;2.30;;;35.20;63.80;;;;;;5049925;28;20043;-46
2021/06/04 08:02:38;;;;;;;4.50;2.17;;;36.00;63.20;;;;;;5050998;28;20040;-50
2021/06/04 08:05:42;;;;;;;5.82;2.42;;;36.80;62.00;;;;;;5051779;28;20395;-49
2021/06/04 08:08:49;;;;;;;6.65;2.30;;;37.70;61.10;;;;;;5051013;28;20048;-51
2021/06/04 08:12:00;;;;;;;5.93;2.25;;;38.40;60.00;;;;;;5051218;28;20029;-45
2021/06/04 08:15:10;;;;;;;4.13;2.30;;;35.90;59.90;;;;;;5048712;28;20048;-46
2021/06/04 08:18:17;;;;;;;6.60;2.50;;;33.50;63.50;;;;;;5051937;28;20514;-49
2021/06/04 08:21:28;;;;;;;11.10;3.13;;;33.20;64.20;;;;;;5050575;28;20051;-47
2021/06/04 08:24:35;;;;;;;5.50;2.45;;;33.30;65.00;;;;;;5050005;28;20044;-48
2021/06/04 08:27:41;;;;;;;5.10;2.40;;;32.40;62.10;;;;;;5051732;28;20040;-45
2021/06/04 08:30:46;;;;;;;6.03;2.08;;;33.30;63.70;;;;;;5037978;28;20116;-48
2021/06/04 08:33:51;;;;;;;5.55;2.60;;;31.80;62.70;;;;;;5051395;28;20044;-46
2021/06/04 08:36:57;;;;;;;5.28;2.35;;;31.70;65.20;;;;;;5050987;28;20040;-48
2021/06/04 08:40:01;;;;;;;5.90;2.30;;;32.00;65.50;;;;;;5050382;28;20520;-48
2021/06/04 08:43:31;;;;;;;5.28;2.20;;;35.00;62.70;;;;;;5050362;28;20029;-48
2021/06/04 08:46:41;;;;;;;7.35;2.85;;;34.80;63.70;;;;;;5048002;28;20415;-52
2021/06/04 08:50:10;;;;;;;8.27;2.85;;;33.20;62.80;;;;;;5038689;28;20064;-47
2021/06/04 08:53:26;;;;;;;6.03;2.33;;;34.40;62.70;;;;;;5051037;28;20542;-47
2021/06/04 08:56:45;;;;;;;6.45;2.75;;;34.70;61.60;;;;;;5050880;28;20043;-47
2021/06/04 08:59:50;;;;;;;5.88;2.50;;;37.60;60.80;;;;;;5050840;28;20046;-51
2021/06/04 09:03:16;;;;;;;4.72;2.03;;;37.20;60.00;;;;;;5050655;28;20399;-51
2021/06/04 09:06:33;;;;;;;7.00;2.33;;;38.80;59.60;;;;;;5053184;28;20045;-49
2021/06/04 09:09:45;;;;;;;8.23;2.28;;;38.40;57.40;;;;;;5050408;28;20033;-51
2021/06/04 09:13:13;;;;;;;4.90;2.20;;;38.80;57.60;;;;;;5049468;28;20069;-50
2021/06/04 09:16:39;;;;;;;7.00;2.60;;;37.00;59.40;;;;;;5048409;28;20043;-50
2021/06/04 09:20:07;;;;;;;4.68;2.70;;;37.10;59.90;;;;;;5043470;28;20040;-46
2021/06/04 09:23:14;;;;;;;7.05;2.60;;;33.70;61.90;;;;;;5039302;28;20033;-49
2021/06/04 09:26:21;;;;;;;4.40;2.17;;;34.30;62.30;;;;;;5048960;28;20045;-48
2021/06/04 09:29:32;;;;;;;5.80;2.17;;;38.20;57.70;;;;;;5045089;28;20041;-47
2021/06/04 09:32:39;;;;;;;5.07;2.15;;;37.90;56.10;;;;;;5031340;28;20048;-48
2021/06/04 09:36:10;;;;;;;9.75;2.10;;;37.20;56.90;;;;;;5025987;28;20044;-50
2021/06/04 09:39:29;;;;;;;4.28;1.60;;;38.90;56.20;;;;;;5047766;28;20041;-49
2021/06/04 09:42:35;;;;;;;9.85;2.53;;;40.00;51.60;;;;;;5048206;28;20044;-48
2021/06/04 09:45:42;;;;;;;5.70;1.30;;;39.50;53.20;;;;;;5029875;28;20613;-48
2021/06/04 09:48:56;;;;;;;9.95;1.92;;;36.00;52.50;;;;;;5029690;28;20054;-50
2021/06/04 09:52:32;;;;;;;2.92;1.80;;;37.30;54.80;;;;;;5036684;28;20040;-48
2021/06/04 09:55:42;;;;;;;4.13;1.65;;;39.90;53.50;;;;;;5048489;28;20048;-48
2021/06/04 09:58:58;;;;;;;3.05;1.42;;;41.60;51.60;;;;;;5049041;28;20047;-52
2021/06/04 10:02:22;;;;;;;6.28;1.50;;;43.60;51.40;;;;;;5042167;28;20028;-50
2021/06/04 10:05:31;;;;;;;3.28;1.23;;;38.40;50.10;;;;;;5049161;28;20515;-49
2021/06/04 10:09:08;;;;;;;6.03;1.50;;;39.70;51.90;;;;;;5029777;28;20060;-48
2021/06/04 10:12:38;;;;;;;3.67;1.17;;;39.90;49.80;;;;;;5029254;28;20399;-50
2021/06/04 10:15:48;;;;;;;2.10;1.30;;;41.00;49.80;;;;;;5029325;28;20041;-50
2021/06/04 10:18:52;;;;;;;1.95;1.20;;;41.90;49.80;;;;;;5017227;28;20044;-48
2021/06/04 10:22:05;;;;;;;1.90;1.30;;;42.00;49.00;;;;;;5028915;28;20493;-49
2021/06/04 10:25:10;;;;;;;4.00;1.63;;;35.50;48.20;;;;;;5049201;28;20060;-50
2021/06/04 10:28:39;;;;;;;5.60;0.98;;;33.20;50.10;;;;;;5048552;28;20471;-51
2021/06/04 10:32:02;;;;;;;5.32;1.50;;;36.90;50.00;;;;;;5049289;28;20052;-48
2021/06/04 10:35:05;;;;;;;3.83;1.35;;;34.60;50.80;;;;;;5049650;28;20060;-50
2021/06/04 10:38:14;;;;;;;9.45;1.70;;;36.30;50.30;;;;;;5049921;28;20048;-52
2021/06/04 10:41:54;;;;;;;4.10;1.20;;;39.50;49.60;;;;;;5048228;28;20044;-49
2021/06/04 10:45:19;;;;;;;2.13;1.27;;;40.40;48.90;;;;;;5049074;28;20048;-49
2021/06/04 10:48:35;;;;;;;2.97;1.98;;;40.20;48.20;;;;;;5048454;28;20061;-51
2021/06/04 10:52:01;;;;;;;2.75;1.10;;;41.20;48.80;;;;;;5048327;28;20037;-47
2021/06/04 10:55:08;;;;;;;7.68;1.40;;;39.10;47.40;;;;;;5049250;28;20412;-49
2021/06/04 10:58:18;;;;;;;1.85;1.15;;;39.00;46.40;;;;;;5049089;28;20045;-48
2021/06/04 11:01:41;;;;;;;2.42;1.42;;;37.00;46.00;;;;;;5048203;28;20392;-49
2021/06/04 11:04:54;;;;;;;3.75;1.60;;;37.50;48.40;;;;;;5048761;28;20049;-48
2021/06/04 11:08:13;;;;;;;4.88;1.60;;;39.70;49.10;;;;;;5048731;28;20256;-52
2021/06/04 11:11:24;;;;;;;2.00;1.33;;;38.40;47.40;;;;;;5049450;28;20534;-48
2021/06/04 11:14:40;;;;;;;2.03;1.25;;;38.00;48.00;;;;;;5048326;28;20530;-50
2021/06/04 11:17:56;;;;;;;2.97;1.35;;;38.40;48.00;;;;;;5045556;28;20512;-48
2021/06/04 11:21:02;;;;;;;3.72;1.20;;;39.30;47.30;;;;;;5039983;28;20051;-48
2021/06/04 11:24:40;;;;;;;3.22;1.20;;;39.20;47.80;;;;;;5030040;28;20068;-51
2021/06/04 11:27:46;;;;;;;6.10;1.50;;;40.10;47.60;;;;;;5028455;28;20523;-47
2021/06/04 11:30:53;;;;;;;7.75;1.58;;;39.20;46.60;;;;;;5027592;28;20034;-51
2021/06/04 11:34:05;;;;;;;2.97;1.55;;;38.20;48.60;;;;;;5038172;28;20040;-52
2021/06/04 11:37:36;;;;;;;3.55;1.50;;;38.80;48.70;;;;;;5044028;28;20391;-48
2021/06/04 11:40:51;;;;;;;;;;;38.60;47.60;;;;;;5051085;28;20035;-47
2021/06/04 11:44:10;;;;;;;2.13;1.23;;;38.70;48.40;;;;;;5051110;28;19916;-47
2021/06/04 11:47:18;;;;;;;2.67;1.25;;;38.20;47.70;;;;;;5045420;28;20060;-50
2021/06/04 11:50:34;;;;;;;4.30;1.30;;;38.60;49.20;;;;;;5042070;28;20052;-50
2021/06/04 11:53:39;;;;;;;6.72;2.03;;;38.70;49.40;;;;;;5051152;28;20400;-47
2021/06/04 11:57:08;;;;;;;3.17;1.45;;;39.10;50.70;;;;;;5050970;28;20033;-49
2021/06/04 12:00:39;;;;;;;3.47;1.40;;;39.00;51.40;;;;;;5038363;28;20045;-53
2021/06/04 12:03:50;;;;;;;;;;;37.70;49.40;;;;;;5050324;28;20529;-48
2021/06/04 12:06:56;;;;;;;;;;;38.40;50.90;;;;;;5038854;28;19920;-49
2021/06/04 12:10:00;;;;;;;3.15;1.40;;;38.10;50.80;;;;;;5050714;28;19927;-49
2021/06/04 12:13:05;;;;;;;2.92;1.52;;;38.40;49.80;;;;;;5050381;28;20060;-49
2021/06/04 12:16:30;;;;;;;2.25;1.23;;;38.70;49.60;;;;;;5043286;28;20032;-51
2021/06/04 12:19:36;;;;;;;2.45;1.60;;;38.40;49.90;;;;;;5043215;28;20518;-49
2021/06/04 12:22:46;;;;;;;5.40;1.58;;;38.40;48.70;;;;;;5050239;28;20044;-53
2021/06/04 12:25:52;;;;;;;5.40;1.40;;;38.20;52.30;;;;;;5050748;28;20047;-47
2021/06/04 12:28:57;;;;;;;4.78;1.45;;;38.40;50.30;;;;;;5049441;28;20040;-50
2021/06/04 12:32:16;;;;;;;2.53;1.52;;;38.70;48.90;;;;;;5046815;28;20060;-46
2021/06/04 12:35:46;;;;;;;4.30;1.80;;;38.60;49.60;;;;;;5046871;28;20056;-51
2021/06/04 12:38:50;;;;;;;3.38;1.48;;;35.60;51.40;;;;;;5038521;28;20373;-52
2021/06/04 12:42:17;;;;;;;4.72;1.40;;;36.40;53.20;;;;;;5046661;28;20044;-48
2021/06/04 12:45:29;;;;;;;2.38;1.38;;;37.10;50.30;;;;;;5049784;28;20048;-48
2021/06/04 12:48:38;;;;;;;2.00;1.33;;;37.20;50.60;;;;;;5050148;28;20037;-48
2021/06/04 12:51:44;;;;;;;3.28;1.65;;;36.20;50.90;;;;;;5038494;28;20043;-50
2021/06/04 12:54:49;;;;;;;3.47;1.30;;;35.50;50.40;;;;;;5049849;28;20040;-50
2021/06/04 12:57:54;;;;;;;2.25;1.38;;;34.90;51.80;;;;;;5050462;28;20036;-46
2021/06/04 13:01:11;;;;;;;5.82;1.40;;;34.20;51.40;;;;;;5050152;28;20044;-46
2021/06/04 13:04:23;;;;;;;5.90;1.60;;;34.50;51.50;;;;;;5050011;28;20040;-51
2021/06/04 13:07:36;;;;;;;5.75;1.60;;;34.70;53.50;;;;;;5050916;28;20407;-51
2021/06/04 13:10:56;;;;;;;5.25;1.40;;;35.10;53.30;;;;;;5050156;28;20052;-46
2021/06/04 13:14:00;;;;;;;4.45;1.90;;;35.30;52.60;;;;;;5050324;28;20052;-47
2021/06/04 13:17:27;;;;;;;3.90;1.60;;;33.00;53.70;;;;;;5049647;28;20044;-50
2021/06/04 13:20:39;;;;;;;2.60;1.58;;;32.10;54.10;;;;;;5049517;28;20040;-46
2021/06/04 13:24:02;;;;;;;4.47;1.60;;;31.40;55.40;;;;;;5049958;28;20045;-49
2021/06/04 13:27:19;;;;;;;6.65;2.55;;;31.20;55.60;;;;;;5050002;28;20052;-46
2021/06/04 13:30:30;;;;;;;3.60;1.50;;;31.50;56.70;;;;;;5049270;28;20336;-47
2021/06/04 13:33:39;;;;;;;5.68;2.20;;;32.50;57.00;;;;;;5038016;28;20048;-48
2021/06/04 13:36:45;;;;;;;7.28;1.52;;;33.20;54.30;;;;;;5049309;28;20048;-48
2021/06/04 13:39:49;;;;;;;4.78;1.55;;;33.80;57.40;;;;;;5050294;28;20044;-47
2021/06/04 13:43:06;;;;;;;3.72;1.60;;;34.10;54.40;;;;;;5049598;28;20052;-50
2021/06/04 13:46:20;;;;;;;2.80;1.48;;;34.20;56.00;;;;;;5049544;28;20048;-47
2021/06/04 13:49:40;;;;;;;4.28;1.60;;;34.10;55.80;;;;;;5037366;28;20418;-46
2021/06/04 13:53:15;;;;;;;3.08;1.35;;;34.10;56.20;;;;;;5048937;28;20050;-50
2021/06/04 13:56:34;;;;;;;3.38;1.40;;;34.00;54.80;;;;;;5011739;28;20033;-48
2021/06/04 13:59:40;;;;;;;20.38;1.52;;;33.70;53.20;;;;;;5049341;28;20059;-46
2021/06/04 14:02:48;;;;;;;7.10;1.65;;;33.40;56.00;;;;;;5049365;28;20052;-48
2021/06/04 14:05:58;;;;;;;2.30;1.20;;;33.20;56.10;;;;;;5049517;28;20044;-48
2021/06/04 14:09:10;;;;;;;5.65;1.30;;;33.20;54.80;;;;;;5049116;28;20037;-49
2021/06/04 14:12:17;;;;;;;6.07;1.70;;;33.50;54.30;;;;;;5049545;28;20049;-46
2021/06/04 14:15:30;;;;;;;7.55;1.48;;;31.90;55.20;;;;;;5048831;28;20059;-49
2021/06/04 14:18:39;;;;;;;4.25;1.55;;;30.90;57.00;;;;;;5049535;28;20037;-49
2021/06/04 14:21:46;;;;;;;27.05;11.15;;;30.40;57.90;;;;;;5049244;28;20154;-49
2021/06/04 14:24:52;;;;;;;7.10;2.60;;;29.70;58.70;;;;;;5049108;28;20518;-46
2021/06/04 14:28:04;;;;;;;3.15;1.55;;;29.80;58.90;;;;;;5049042;28;20051;-48
2021/06/04 14:31:09;;;;;;;9.93;1.85;;;30.20;56.90;;;;;;5048707;28;20036;-46
2021/06/04 14:34:15;;;;;;;6.88;1.88;;;31.10;57.00;;;;;;5049158;28;20044;-48
2021/06/04 14:37:52;;;;;;;6.47;2.15;;;31.60;56.80;;;;;;5029309;28;20048;-51
2021/06/04 14:40:59;;;;;;;8.57;3.42;;;31.00;56.50;;;;;;5036675;28;20042;-48
2021/06/04 14:44:04;;;;;;;2.38;1.33;;;30.30;57.70;;;;;;5049238;28;20516;-46
2021/06/04 14:47:22;;;;;;;7.53;1.48;;;30.70;55.90;;;;;;5048527;28;20037;-47
2021/06/04 14:50:33;;;;;;;4.30;1.55;;;31.30;58.30;;;;;;5048786;28;20036;-48
2021/06/04 14:53:38;;;;;;;3.22;1.52;;;31.80;55.30;;;;;;5046253;28;20029;-47
2021/06/04 14:56:44;;;;;;;4.93;1.60;;;31.60;55.50;;;;;;5044574;28;20029;-48
2021/06/04 14:59:49;;;;;;;5.88;1.80;;;31.30;55.40;;;;;;5047367;28;20044;-46
2021/06/04 15:02:54;;;;;;;4.72;1.60;;;31.10;55.60;;;;;;5045962;28;20032;-49
2021/06/04 15:05:58;;;;;;;4.18;1.50;;;31.30;57.70;;;;;;5048511;28;20124;-50
2021/06/04 15:09:03;;;;;;;6.55;1.77;;;31.30;55.80;;;;;;5030527;28;20542;-47
2021/06/04 15:12:13;;;;;;;5.72;1.50;;;30.30;56.90;;;;;;5038859;28;20046;-48
2021/06/04 15:15:22;;;;;;;4.10;1.80;;;30.20;58.50;;;;;;5034008;28;20407;-49
2021/06/04 15:18:30;;;;;;;5.57;1.50;;;30.50;58.00;;;;;;5038088;28;20052;-51
2021/06/04 15:21:38;;;;;;;6.68;1.50;;;30.80;57.60;;;;;;5038842;28;20048;-48
2021/06/04 15:24:47;;;;;;;3.28;1.58;;;31.10;58.70;;;;;;5042448;28;20048;-46
2021/06/04 15:27:52;;;;;;;3.10;1.80;;;31.20;59.40;;;;;;5047439;28;20047;-45
2021/06/04 15:31:01;;;;;;;8.50;1.85;;;31.50;60.60;;;;;;5051738;28;20041;-47
2021/06/04 15:34:05;;;;;;;5.53;1.50;;;30.30;57.70;;;;;;5037934;28;20049;-50
2021/06/04 15:37:09;;;;;;;2.80;1.50;;;30.50;59.50;;;;;;5033708;28;20041;-48
2021/06/04 15:40:14;;;;;;;2.42;1.45;;;30.90;60.60;;;;;;5034630;28;20056;-47
2021/06/04 15:43:20;;;;;;;3.83;1.52;;;31.10;61.10;;;;;;5032613;28;20071;-48
2021/06/04 15:46:26;;;;;;;2.13;1.40;;;31.50;60.60;;;;;;5036938;28;20062;-47
2021/06/04 15:49:32;;;;;;;4.07;1.52;;;31.50;60.00;;;;;;5037319;28;20032;-48
2021/06/04 15:52:36;;;;;;;4.93;1.85;;;31.50;60.70;;;;;;5046049;28;20044;-47
2021/06/04 15:55:41;;;;;;;3.10;1.40;;;31.50;60.00;;;;;;5040313;28;20037;-46
2021/06/04 15:58:47;;;;;;;5.28;2.03;;;31.30;61.60;;;;;;5049567;28;20042;-48
2021/06/04 16:01:51;;;;;;;3.75;1.70;;;31.20;62.40;;;;;;5045106;28;20033;-51
2021/06/04 16:04:56;;;;;;;3.65;1.50;;;31.10;61.10;;;;;;5048978;28;20044;-47
2021/06/04 16:08:00;;;;;;;2.95;1.60;;;31.00;62.30;;;;;;5050635;28;20048;-47
2021/06/04 16:11:04;;;;;;;8.35;2.08;;;30.90;62.60;;;;;;5045476;28;20039;-48
2021/06/04 16:14:11;;;;;;;6.00;1.80;;;30.80;63.60;;;;;;5050806;28;20056;-49
2021/06/04 16:17:15;;;;;;;4.28;1.80;;;30.70;64.00;;;;;;5037455;28;20056;-47
2021/06/04 16:20:20;;;;;;;5.55;1.58;;;30.60;64.10;;;;;;5037935;28;20033;-48
2021/06/04 16:23:26;;;;;;;5.40;2.47;;;30.40;64.60;;;;;;5036485;28;20049;-47
2021/06/04 16:26:31;;;;;;;5.20;2.15;;;30.00;65.50;;;;;;5050369;28;20052;-47
2021/06/04 16:29:36;;;;;;;11.70;4.00;;;29.80;65.40;;;;;;5047269;28;20514;-51
2021/06/04 16:32:40;;;;;;;5.25;2.50;;;29.70;66.40;;;;;;5044614;28;20036;-50
2021/06/04 16:35:45;;;;;;;3.75;2.00;;;29.80;66.50;;;;;;5048722;28;20038;-46